Time;durP1;ratioP1;P1;durP2;ratioP2;P2;SDS_P1;SDS_P2;PMS_P1;PMS_P2;Temp;Humidity;BMP_temperature;BMP_pressure;BME280_temperature;BME280_humidity;BME280_pressure;Samples;Min_cycle;Max_cycle;Signal;HPM_P1;HPM_P2
2024/01/16 00:00:29;;;;;;;5.90;2.20;;;;;;;4.31;61.93;100933.78;5000298;28;99770;-69
2024/01/16 00:02:56;;;;;;;8.25;2.33;;;;;;;4.30;61.95;100939.19;5002582;28;97328;-68
2024/01/16 00:05:23;;;;;;;12.27;2.42;;;;;;;4.29;61.91;100932.13;5003053;28;97161;-68
2024/01/16 00:07:50;;;;;;;7.78;2.33;;;;;;;4.29;62.08;100930.34;5002245;27;97394;-69
2024/01/16 00:10:16;;;;;;;7.78;2.13;;;;;;;4.29;61.86;100925.03;5003753;28;99409;-69
2024/01/16 00:12:43;;;;;;;8.38;2.47;;;;;;;4.29;61.92;100922.38;4998748;28;97178;-69
2024/01/16 00:15:10;;;;;;;8.10;1.90;;;;;;;4.28;61.82;100922.44;5003141;28;97168;-69
2024/01/16 00:17:37;;;;;;;9.48;2.42;;;;;;;4.27;61.86;100926.88;4995635;28;97456;-69
2024/01/16 00:20:05;;;;;;;6.50;2.25;;;;;;;4.26;61.85;100921.63;5001743;28;98629;-69
2024/01/16 00:22:32;;;;;;;6.53;2.30;;;;;;;4.26;61.79;100929.63;5001498;28;97129;-68
2024/01/16 00:24:59;;;;;;;7.30;2.40;;;;;;;4.26;61.88;100927.81;5002782;28;97351;-69
2024/01/16 00:27:25;;;;;;;8.50;2.38;;;;;;;4.26;61.75;100933.13;4996472;28;97548;-69
2024/01/16 00:29:52;;;;;;;9.02;2.80;;;;;;;4.26;61.87;100930.47;4999381;28;97266;-69
2024/01/16 00:32:19;;;;;;;10.15;2.58;;;;;;;4.24;61.76;100935.00;4999591;28;96937;-68
2024/01/16 00:34:46;;;;;;;6.80;2.60;;;;;;;4.22;61.77;100939.50;5005007;28;97312;-69
2024/01/16 00:37:12;;;;;;;5.50;2.22;;;;;;;4.20;61.69;100929.88;5003985;28;97605;-69
2024/01/16 00:39:39;;;;;;;10.13;2.75;;;;;;;4.19;61.80;100938.78;5003600;28;97600;-69
2024/01/16 00:42:06;;;;;;;5.47;2.42;;;;;;;4.18;61.92;100937.91;4998384;28;97212;-69
2024/01/16 00:44:32;;;;;;;6.90;2.20;;;;;;;4.18;61.99;100940.56;4996668;28;97437;-68
2024/01/16 00:47:01;;;;;;;6.93;2.03;;;;;;;4.20;61.93;100953.81;4997534;28;97414;-68
2024/01/16 00:49:28;;;;;;;7.97;2.00;;;;;;;4.19;61.93;100934.34;5012882;27;98861;-69
2024/01/16 00:51:55;;;;;;;5.28;1.95;;;;;;;4.19;61.96;100944.97;5001312;28;97177;-69
2024/01/16 00:54:22;;;;;;;5.88;2.17;;;;;;;4.20;62.24;100945.81;5003298;28;97439;-69
2024/01/16 00:56:49;;;;;;;7.57;2.65;;;;;;;4.20;61.79;100944.03;5002075;28;97635;-68
2024/01/16 00:59:15;;;;;;;8.77;2.50;;;;;;;4.23;62.09;100951.88;5003580;28;97627;-68
2024/01/16 01:01:42;;;;;;;8.73;2.15;;;;;;;4.25;61.90;100960.66;5004451;28;97231;-69
2024/01/16 01:04:09;;;;;;;7.47;1.90;;;;;;;4.28;62.01;100971.16;5002536;28;97051;-69
2024/01/16 01:06:38;;;;;;;8.43;2.40;;;;;;;4.27;61.86;100971.22;5002478;28;97846;-69
2024/01/16 01:09:05;;;;;;;9.80;2.42;;;;;;;4.27;61.87;100969.41;4983032;28;98973;-69
2024/01/16 01:11:32;;;;;;;9.30;2.10;;;;;;;4.27;61.99;100972.06;5005198;28;97220;-69
2024/01/16 01:13:59;;;;;;;8.13;2.50;;;;;;;4.26;62.08;100975.66;5000625;28;97291;-69
2024/01/16 01:16:26;;;;;;;6.85;2.53;;;;;;;4.25;61.77;100965.97;5000872;28;99892;-69
2024/01/16 01:18:52;;;;;;;9.35;2.35;;;;;;;4.23;61.73;100970.47;5000323;28;100318;-69
2024/01/16 01:21:19;;;;;;;9.05;2.72;;;;;;;4.20;61.83;100961.78;5003892;28;97079;-69
2024/01/16 01:23:46;;;;;;;8.52;2.63;;;;;;;4.20;61.93;100959.97;5001417;28;97204;-69
2024/01/16 01:26:17;;;;;;;9.30;2.40;;;;;;;4.20;61.93;100954.66;5004760;28;97686;-69
2024/01/16 01:28:44;;;;;;;10.00;2.35;;;;;;;4.20;61.79;100953.81;4996073;28;98092;-69
2024/01/16 01:31:12;;;;;;;6.45;2.63;;;;;;;4.18;61.79;100956.53;4999666;28;98361;-69
2024/01/16 01:33:39;;;;;;;9.82;1.92;;;;;;;4.18;61.88;100956.53;4999904;28;97194;-69
2024/01/16 01:39:05;;;;;;;10.85;2.17;;;;;;;4.16;61.86;100947.75;5307175;22;98281;-80
2024/01/16 01:41:32;;;;;;;5.72;2.30;;;;;;;4.15;61.91;100957.53;4931203;28;98613;-80
2024/01/16 01:43:59;;;;;;;8.70;2.45;;;;;;;4.15;61.85;100956.66;4955651;28;97203;-83
2024/01/16 01:46:27;;;;;;;6.63;2.53;;;;;;;4.15;61.79;100954.88;4944817;28;100419;-83
2024/01/16 01:48:55;;;;;;;8.57;3.03;;;;;;;4.17;61.80;100949.47;4942119;28;100495;-82
2024/01/16 01:51:22;;;;;;;6.28;2.42;;;;;;;4.19;61.83;100960.06;4942243;28;97278;-79
2024/01/16 01:53:51;;;;;;;9.70;2.55;;;;;;;4.18;61.72;100959.19;4933607;28;97224;-79
2024/01/16 01:56:19;;;;;;;9.13;3.22;;;;;;;4.21;61.87;100967.03;4942516;28;99714;-80
2024/01/16 01:58:47;;;;;;;4.60;2.65;;;;;;;4.22;61.95;100965.22;4940621;28;98142;-80
2024/01/16 02:01:17;;;;;;;11.10;3.47;;;;;;;4.21;61.92;100955.53;4927769;28;97448;-81
2024/01/16 02:03:45;;;;;;;7.63;3.35;;;;;;;4.23;61.98;100954.53;4944684;28;97100;-80
2024/01/16 02:06:13;;;;;;;10.93;3.45;;;;;;;4.27;61.99;100955.25;4954720;28;97720;-81
2024/01/16 02:08:40;;;;;;;7.43;3.10;;;;;;;4.28;61.76;100957.84;4966014;28;98016;-80
2024/01/16 02:11:07;;;;;;;6.97;3.28;;;;;;;4.30;62.37;100961.31;4942497;28;97102;-81
2024/01/16 02:13:34;;;;;;;8.20;3.55;;;;;;;4.32;62.02;100961.25;4950769;28;97334;-80
2024/01/16 02:16:03;;;;;;;10.73;3.58;;;;;;;4.35;62.10;100963.78;4944137;28;98496;-80
2024/01/16 02:18:30;;;;;;;10.05;3.75;;;;;;;4.38;62.10;100967.16;4941900;28;100712;-81
2024/01/16 02:21:03;;;;;;;10.25;3.67;;;;;;;4.41;62.04;100967.03;4944645;28;97166;-80
2024/01/16 02:23:31;;;;;;;9.20;3.55;;;;;;;4.42;62.03;100971.41;4940221;28;97127;-81
2024/01/16 02:25:58;;;;;;;8.20;4.28;;;;;;;4.44;62.01;100976.66;4950540;28;97988;-80
2024/01/16 02:28:25;;;;;;;9.25;3.88;;;;;;;4.45;62.09;100979.25;4940026;28;98101;-80
2024/01/16 02:30:52;;;;;;;13.70;3.75;;;;;;;4.46;62.01;100981.03;4945337;28;97066;-80
2024/01/16 02:33:19;;;;;;;9.82;4.38;;;;;;;4.47;62.10;100987.19;4934559;28;98502;-80
2024/01/16 02:35:46;;;;;;;10.63;4.00;;;;;;;4.47;61.97;100989.84;4940040;28;99982;-80
2024/01/16 02:38:12;;;;;;;9.80;3.75;;;;;;;4.47;62.00;100998.69;4940767;28;97948;-80
2024/01/16 02:40:40;;;;;;;8.75;3.53;;;;;;;4.46;62.04;100999.63;4948833;28;97358;-80
2024/01/16 02:43:07;;;;;;;9.73;3.67;;;;;;;4.47;62.09;100997.84;4944656;28;97222;-80
2024/01/16 02:45:34;;;;;;;12.57;4.22;;;;;;;4.49;62.14;100995.13;4930003;28;99086;-81
2024/01/16 02:48:01;;;;;;;5.50;3.22;;;;;;;4.49;62.00;100985.34;4957444;28;98514;-80
2024/01/16 02:50:28;;;;;;;8.80;4.45;;;;;;;4.50;62.08;100995.03;4941548;28;97597;-80
2024/01/16 02:52:55;;;;;;;8.13;3.90;;;;;;;4.51;62.04;100987.94;4962211;28;96819;-81
2024/01/16 02:55:22;;;;;;;11.77;4.00;;;;;;;4.55;62.15;100984.19;4957741;28;98399;-80
2024/01/16 02:57:49;;;;;;;15.85;5.13;;;;;;;4.59;62.10;100985.78;4931447;28;100121;-80
2024/01/16 03:00:16;;;;;;;7.03;3.95;;;;;;;4.61;61.95;100975.94;4951500;28;96800;-80
2024/01/16 03:02:44;;;;;;;9.23;3.83;;;;;;;4.66;62.06;100976.59;4958217;28;96968;-80
2024/01/16 03:05:10;;;;;;;7.50;3.92;;;;;;;4.70;62.13;100978.19;4973308;28;98300;-80
2024/01/16 03:07:37;;;;;;;7.93;4.07;;;;;;;4.72;62.01;100981.66;4970592;28;100165;-80
2024/01/16 03:10:04;;;;;;;7.30;4.57;;;;;;;4.74;62.10;100975.34;4944610;28;97096;-80
2024/01/16 03:12:31;;;;;;;8.73;3.70;;;;;;;4.77;61.91;100979.66;4944697;28;96987;-81
2024/01/16 03:14:57;;;;;;;9.23;3.72;;;;;;;4.79;62.03;100977.78;4960857;28;97517;-81
2024/01/16 03:17:24;;;;;;;11.35;4.35;;;;;;;4.81;61.83;100985.69;4920776;28;98233;-81
2024/01/16 03:19:51;;;;;;;10.07;4.63;;;;;;;4.83;61.90;100982.03;4946314;28;97439;-81
2024/01/16 03:22:18;;;;;;;11.15;4.88;;;;;;;4.85;62.10;100977.50;4945131;28;97922;-81
2024/01/16 03:24:45;;;;;;;12.18;4.05;;;;;;;4.88;62.07;100982.69;4932749;28;100144;-81
2024/01/16 03:27:13;;;;;;;16.10;4.57;;;;;;;4.89;62.15;100987.09;4928464;28;98446;-81
2024/01/16 03:29:39;;;;;;;7.72;4.57;;;;;;;4.90;62.04;100983.50;4950140;28;97266;-81
2024/01/16 03:32:06;;;;;;;10.63;4.40;;;;;;;4.91;61.94;100982.56;4947524;28;97872;-81
2024/01/16 03:34:33;;;;;;;7.70;3.63;;;;;;;4.91;61.99;100981.69;4955076;28;98105;-81
2024/01/16 03:37:00;;;;;;;8.55;3.83;;;;;;;4.90;61.74;100970.19;4955944;28;98146;-81
2024/01/16 03:39:27;;;;;;;9.30;3.58;;;;;;;4.88;61.92;100969.38;4954205;28;97162;-81
2024/01/16 03:41:54;;;;;;;8.65;3.50;;;;;;;4.89;61.92;100973.78;4943998;28;97368;-81
2024/01/16 03:44:21;;;;;;;7.95;3.30;;;;;;;4.89;61.90;100968.47;4940317;28;100680;-81
2024/01/16 03:46:48;;;;;;;7.78;3.65;;;;;;;4.89;62.03;100968.47;4941743;28;98194;-81
2024/01/16 03:49:14;;;;;;;8.23;3.92;;;;;;;4.88;61.99;100966.72;4959660;28;99040;-81
2024/01/16 03:51:46;;;;;;;10.85;3.50;;;;;;;4.85;62.16;100968.66;4964022;28;97258;-81
2024/01/16 03:54:13;;;;;;;9.35;3.50;;;;;;;4.82;61.78;100968.81;4946201;28;98943;-81
2024/01/16 03:56:40;;;;;;;7.07;3.20;;;;;;;4.79;61.98;100969.81;4948407;28;100426;-81
2024/01/16 03:59:06;;;;;;;5.45;2.95;;;;;;;4.79;62.08;100975.13;4947834;28;97162;-81
2024/01/16 04:01:36;;;;;;;7.28;2.85;;;;;;;4.78;61.95;100976.94;4953033;28;97892;-81
2024/01/16 04:04:07;;;;;;;6.07;2.45;;;;;;;4.78;61.87;100976.94;4960441;28;98803;-80
2024/01/16 04:06:34;;;;;;;7.63;2.47;;;;;;;4.78;61.78;100979.59;4965538;28;97459;-80
2024/01/16 04:09:01;;;;;;;6.93;2.45;;;;;;;4.78;62.00;100981.38;4959860;28;97063;-80
2024/01/16 04:11:29;;;;;;;4.95;2.28;;;;;;;4.78;61.99;100984.91;4956426;28;97429;-80
2024/01/16 04:13:56;;;;;;;6.25;2.38;;;;;;;4.77;62.08;100984.97;4941815;28;97712;-80
2024/01/16 04:16:23;;;;;;;6.22;2.92;;;;;;;4.78;62.02;100970.75;4945104;28;97683;-79
2024/01/16 04:18:50;;;;;;;7.20;2.60;;;;;;;4.77;62.05;100969.00;4942536;28;97164;-81
2024/01/16 04:21:16;;;;;;;8.35;2.67;;;;;;;4.78;61.95;100974.25;4930557;28;97284;-80
2024/01/16 04:23:46;;;;;;;5.35;2.65;;;;;;;4.77;62.02;100967.22;4924376;28;99420;-80
2024/01/16 04:26:13;;;;;;;9.38;2.80;;;;;;;4.77;61.94;100963.69;4946682;28;98089;-79
2024/01/16 04:28:40;;;;;;;4.90;2.65;;;;;;;4.80;61.92;100971.53;4953888;28;97048;-80
2024/01/16 04:31:07;;;;;;;6.88;3.30;;;;;;;4.82;62.06;100966.16;4948089;28;97392;-80
2024/01/16 04:33:34;;;;;;;6.55;3.13;;;;;;;4.81;61.81;100967.94;4936188;28;100440;-79
2024/01/16 04:36:01;;;;;;;7.85;3.58;;;;;;;4.81;61.95;100967.94;4942821;28;98292;-80
2024/01/16 04:38:27;;;;;;;7.45;3.20;;;;;;;4.79;61.81;100967.16;4948162;28;97264;-80
2024/01/16 04:40:55;;;;;;;9.57;3.20;;;;;;;4.76;61.75;100968.16;4944142;28;97279;-80
2024/01/16 04:43:23;;;;;;;8.38;3.80;;;;;;;4.74;61.54;100964.69;4956120;28;98660;-80
2024/01/16 04:45:50;;;;;;;9.65;3.67;;;;;;;4.72;61.91;100957.72;4920976;28;100531;-80
2024/01/16 04:48:16;;;;;;;5.93;2.92;;;;;;;4.72;61.83;100953.25;4929642;28;99632;-80
2024/01/16 04:50:45;;;;;;;6.35;3.45;;;;;;;4.74;61.90;100953.19;4937723;28;98082;-80
2024/01/16 04:53:12;;;;;;;8.82;3.25;;;;;;;4.72;61.91;100963.91;4961784;28;100167;-80
2024/01/16 04:55:38;;;;;;;10.18;3.45;;;;;;;4.72;62.01;100957.72;4937234;28;100822;-80
2024/01/16 04:58:05;;;;;;;6.93;3.47;;;;;;;4.70;61.96;100947.16;4962051;28;97678;-80
2024/01/16 05:00:32;;;;;;;9.25;3.38;;;;;;;4.68;61.89;100941.03;4930382;28;96924;-80
2024/01/16 05:02:59;;;;;;;9.60;3.58;;;;;;;4.71;61.79;100948.00;4969529;28;98193;-80
2024/01/16 05:05:26;;;;;;;5.70;3.45;;;;;;;4.72;61.93;100941.75;4955806;28;97198;-79
2024/01/16 05:07:55;;;;;;;7.63;3.13;;;;;;;4.71;61.84;100937.38;4948827;28;97632;-82
2024/01/16 05:10:22;;;;;;;7.43;3.17;;;;;;;4.73;61.91;100940.81;4946395;28;96910;-82
2024/01/16 05:12:52;;;;;;;5.15;2.60;;;;;;;4.73;61.97;100933.69;4956995;28;101118;-81
2024/01/16 05:15:18;;;;;;;5.72;3.38;;;;;;;4.72;61.82;100931.97;4942567;28;98016;-80
2024/01/16 05:17:45;;;;;;;7.40;3.10;;;;;;;4.71;61.97;100932.03;4944898;28;97310;-80
2024/01/16 05:20:12;;;;;;;7.88;2.72;;;;;;;4.69;62.00;100926.78;4931080;28;97225;-80
2024/01/16 05:22:39;;;;;;;9.38;2.55;;;;;;;4.66;61.96;100924.28;4952729;28;97701;-80
2024/01/16 05:25:07;;;;;;;8.10;2.50;;;;;;;4.65;62.05;100927.00;4941499;28;99086;-80
2024/01/16 05:27:34;;;;;;;4.32;2.22;;;;;;;4.65;62.06;100927.00;4929042;28;98031;-80
2024/01/16 05:30:01;;;;;;;6.38;2.20;;;;;;;4.66;62.00;100923.41;4942157;28;97360;-80
2024/01/16 05:32:28;;;;;;;5.97;2.45;;;;;;;4.66;61.97;100924.28;4938573;28;100956;-80
2024/01/16 05:34:54;;;;;;;2.92;2.15;;;;;;;4.66;61.89;100932.25;4944187;28;98553;-80
2024/01/16 05:37:22;;;;;;;5.80;1.90;;;;;;;4.68;62.13;100922.41;4944354;28;96960;-81
2024/01/16 05:39:49;;;;;;;5.28;2.25;;;;;;;4.70;62.14;100931.19;4955009;28;97393;-80
2024/01/16 05:42:15;;;;;;;7.63;2.00;;;;;;;4.72;61.92;100926.66;4920674;28;100424;-80
2024/01/16 05:44:42;;;;;;;7.32;2.13;;;;;;;4.73;62.15;100924.84;4930649;28;100135;-80
2024/01/16 05:47:10;;;;;;;5.15;1.75;;;;;;;4.73;61.91;100912.41;4940726;28;98069;-80
2024/01/16 05:49:37;;;;;;;7.68;2.20;;;;;;;4.76;61.92;100924.72;4954650;28;97700;-80
2024/01/16 05:52:04;;;;;;;5.30;2.22;;;;;;;4.77;61.92;100915.81;4941667;28;98402;-80
2024/01/16 05:54:30;;;;;;;6.22;2.78;;;;;;;4.78;61.98;100912.22;4929271;28;100335;-80
2024/01/16 05:56:57;;;;;;;6.97;2.20;;;;;;;4.79;61.98;100903.28;4925750;28;97021;-80
2024/01/16 05:59:24;;;;;;;6.55;2.38;;;;;;;4.81;61.82;100905.88;4934118;28;98093;-80
2024/01/16 06:01:51;;;;;;;6.32;2.60;;;;;;;4.82;61.85;100908.47;4923012;28;100282;-80
2024/01/16 06:04:18;;;;;;;5.30;2.17;;;;;;;4.82;61.88;100900.50;4929193;28;100738;-79
2024/01/16 06:06:46;;;;;;;6.60;2.30;;;;;;;4.81;61.93;100892.56;4949169;28;97408;-80
2024/01/16 06:09:14;;;;;;;7.38;2.10;;;;;;;4.80;61.92;100891.72;4926539;28;97157;-80
2024/01/16 06:11:41;;;;;;;9.38;2.60;;;;;;;4.79;61.92;100890.00;4941661;28;100307;-80
2024/01/16 06:14:09;;;;;;;6.35;2.70;;;;;;;4.82;61.88;100891.66;4926752;28;100619;-80
2024/01/16 06:16:36;;;;;;;9.32;3.28;;;;;;;4.82;62.07;100892.50;4953733;28;97252;-80
2024/01/16 06:19:02;;;;;;;7.97;2.92;;;;;;;4.82;61.72;100888.97;4951130;28;97336;-80
2024/01/16 06:21:29;;;;;;;6.05;2.40;;;;;;;4.82;61.96;100897.81;4960096;28;98260;-80
2024/01/16 06:23:56;;;;;;;10.13;2.95;;;;;;;4.81;61.93;100900.56;4927036;28;101371;-80
2024/01/16 06:26:23;;;;;;;6.13;2.95;;;;;;;4.81;62.03;100901.41;4919796;28;97245;-80
2024/01/16 06:28:50;;;;;;;6.93;2.70;;;;;;;4.82;61.93;100905.81;4924524;28;97220;-81
2024/01/16 06:31:17;;;;;;;8.82;2.67;;;;;;;4.82;62.02;100892.50;4959835;28;97814;-80
2024/01/16 06:33:44;;;;;;;7.53;2.53;;;;;;;4.82;61.92;100899.63;4936629;28;100804;-80
2024/01/16 06:36:11;;;;;;;7.35;2.90;;;;;;;4.83;62.14;100915.53;4933018;28;97313;-80
2024/01/16 06:38:40;;;;;;;10.15;2.75;;;;;;;4.84;62.06;100903.94;4938528;28;98095;-80
2024/01/16 06:41:07;;;;;;;8.00;3.05;;;;;;;4.85;62.10;100910.13;4937861;28;97765;-80
2024/01/16 06:43:34;;;;;;;9.23;3.17;;;;;;;4.87;61.94;100905.59;4944312;28;98045;-80
2024/01/16 06:46:01;;;;;;;8.00;3.45;;;;;;;4.90;61.88;100908.13;4940615;28;97418;-80
2024/01/16 06:48:27;;;;;;;8.85;3.22;;;;;;;4.90;61.96;100911.63;4961811;28;97099;-80
2024/01/16 06:50:54;;;;;;;7.93;3.63;;;;;;;4.92;62.06;100906.25;4952782;28;98778;-80
2024/01/16 06:53:21;;;;;;;11.13;4.03;;;;;;;4.93;62.04;100914.16;4962011;28;100886;-81
2024/01/16 06:55:48;;;;;;;9.32;4.13;;;;;;;4.94;61.97;100907.91;4950384;28;96871;-81
2024/01/16 06:58:15;;;;;;;8.18;4.80;;;;;;;4.95;61.89;100901.63;4953607;28;97107;-80
2024/01/16 07:00:42;;;;;;;10.43;4.60;;;;;;;4.98;61.90;100913.94;4944239;28;100297;-81
2024/01/16 07:03:10;;;;;;;9.10;4.80;;;;;;;4.99;62.06;100916.53;4932937;28;98282;-80
2024/01/16 07:05:36;;;;;;;11.82;5.00;;;;;;;5.00;62.04;100906.75;4966827;28;97521;-81
2024/01/16 07:08:03;;;;;;;13.60;5.50;;;;;;;5.00;62.06;100904.09;4946155;28;97602;-81
2024/01/16 07:10:31;;;;;;;13.18;6.18;;;;;;;5.01;62.01;100908.47;4967488;28;98184;-81
2024/01/16 07:12:58;;;;;;;11.93;5.43;;;;;;;5.01;62.10;100909.34;4960404;28;98197;-82
2024/01/16 07:15:25;;;;;;;11.02;5.53;;;;;;;5.01;62.04;100905.81;4939984;28;97506;-80
2024/01/16 07:17:52;;;;;;;13.73;5.53;;;;;;;5.03;62.05;100907.47;4936244;28;97490;-81
2024/01/16 07:20:19;;;;;;;15.10;6.07;;;;;;;5.03;61.97;100907.47;4937662;28;99670;-81
2024/01/16 07:22:46;;;;;;;12.52;5.20;;;;;;;5.04;62.05;100911.84;4938170;28;97998;-80
2024/01/16 07:25:13;;;;;;;11.45;5.40;;;;;;;5.03;62.07;100912.78;4942775;28;97393;-80
2024/01/16 07:27:40;;;;;;;12.18;5.78;;;;;;;5.04;61.98;100922.50;4941939;28;97324;-80
2024/01/16 07:30:07;;;;;;;10.23;6.28;;;;;;;5.06;62.18;100917.97;4943512;28;99256;-80
2024/01/16 07:32:34;;;;;;;14.43;5.90;;;;;;;5.06;61.88;100920.63;4933907;28;97344;-80
2024/01/16 07:35:02;;;;;;;9.05;5.75;;;;;;;5.07;62.02;100921.50;4943071;28;97444;-80
2024/01/16 07:37:29;;;;;;;13.63;6.30;;;;;;;5.09;61.97;100922.28;4950461;28;97592;-80
2024/01/16 07:39:56;;;;;;;10.13;5.82;;;;;;;5.09;62.07;100924.94;4926965;28;100289;-80
2024/01/16 07:42:23;;;;;;;10.27;6.57;;;;;;;5.10;61.95;100930.19;4940673;28;100554;-80
2024/01/16 07:44:51;;;;;;;15.88;7.35;;;;;;;5.09;61.83;100925.81;4932311;28;97493;-80
2024/01/16 07:47:18;;;;;;;16.98;7.90;;;;;;;5.10;62.02;100926.66;4941943;28;97720;-80
2024/01/16 07:49:45;;;;;;;14.05;7.85;;;;;;;5.09;61.91;100928.47;4931604;28;98059;-80
2024/01/16 07:52:12;;;;;;;15.55;7.68;;;;;;;5.08;61.89;100933.88;4961872;28;98020;-80
2024/01/16 07:54:39;;;;;;;13.55;7.78;;;;;;;5.06;61.94;100933.94;4930296;28;97290;-81
2024/01/16 07:57:06;;;;;;;13.20;7.70;;;;;;;5.06;62.11;100933.94;4928069;28;97760;-81
2024/01/16 07:59:33;;;;;;;12.77;7.65;;;;;;;5.06;61.78;100933.06;4930089;28;100279;-81
2024/01/16 08:01:59;;;;;;;13.10;8.52;;;;;;;5.08;61.92;100932.06;4949848;28;100326;-81
2024/01/16 08:04:26;;;;;;;14.95;8.05;;;;;;;5.09;62.00;100932.94;4943962;28;98077;-80
2024/01/16 08:06:55;;;;;;;20.75;7.93;;;;;;;5.11;61.80;100933.72;4945874;28;97588;-80
2024/01/16 08:09:22;;;;;;;17.88;8.45;;;;;;;5.10;61.90;100935.53;4957446;28;100821;-81
2024/01/16 08:11:49;;;;;;;11.98;7.72;;;;;;;5.10;61.86;100935.53;4928469;28;100935;-82
2024/01/16 08:14:16;;;;;;;17.13;8.65;;;;;;;5.11;61.97;100944.38;4965373;28;96839;-82
2024/01/16 08:16:43;;;;;;;16.88;8.43;;;;;;;5.11;61.78;100942.56;4947980;28;97397;-81
2024/01/16 08:19:10;;;;;;;16.83;8.70;;;;;;;5.09;61.69;100941.78;4939347;28;99789;-82
2024/01/16 08:21:37;;;;;;;16.85;8.68;;;;;;;5.09;61.52;100943.56;4927404;28;97982;-81
2024/01/16 08:24:05;;;;;;;14.05;8.65;;;;;;;5.08;61.70;100942.72;4957308;28;97315;-82
2024/01/16 08:26:32;;;;;;;14.07;7.97;;;;;;;5.06;61.64;100944.59;4943043;28;97259;-82
2024/01/16 08:28:59;;;;;;;14.20;7.95;;;;;;;5.05;61.54;100942.00;4927597;28;99774;-82
2024/01/16 08:31:27;;;;;;;15.20;8.18;;;;;;;5.05;61.62;100944.66;4945853;28;97723;-82
2024/01/16 08:33:55;;;;;;;15.95;8.75;;;;;;;5.05;61.63;100948.19;4943325;28;97789;-82
2024/01/16 08:36:23;;;;;;;15.73;7.53;;;;;;;5.06;61.54;100943.72;4944844;28;97844;-82
2024/01/16 08:38:49;;;;;;;14.48;6.70;;;;;;;5.05;61.59;100950.84;4956742;28;98202;-82
2024/01/16 08:41:16;;;;;;;11.38;7.22;;;;;;;5.05;61.49;100944.66;4942475;28;100009;-83
2024/01/16 08:43:46;;;;;;;13.05;7.43;;;;;;;5.04;61.44;100938.47;4956967;28;99095;-82
2024/01/16 08:46:13;;;;;;;12.18;6.10;;;;;;;5.03;61.37;100941.19;4936256;28;97310;-82
2024/01/16 08:48:41;;;;;;;11.43;6.68;;;;;;;5.03;61.47;100942.06;4954139;28;100604;-82
2024/01/16 08:51:11;;;;;;;12.95;6.95;;;;;;;5.05;61.55;100942.84;4957708;28;98559;-82
2024/01/16 08:53:38;;;;;;;10.63;6.38;;;;;;;5.06;61.38;100944.59;4948339;28;97787;-82
2024/01/16 08:56:08;;;;;;;12.02;5.95;;;;;;;5.07;61.55;100948.97;4950461;28;97376;-82
2024/01/16 08:58:37;;;;;;;12.45;6.88;;;;;;;5.07;61.48;100946.31;4950055;28;98718;-80
2024/01/16 09:01:05;;;;;;;10.25;6.22;;;;;;;5.08;61.43;100947.19;4944593;28;98092;-80
2024/01/16 09:03:36;;;;;;;12.40;6.30;;;;;;;5.07;61.05;100945.44;4934997;28;97680;-83
2024/01/16 09:06:03;;;;;;;14.50;6.43;;;;;;;5.07;60.95;100946.31;4948903;28;97441;-82
2024/01/16 09:08:30;;;;;;;13.23;5.90;;;;;;;5.07;61.22;100945.44;4943047;28;100347;-82
2024/01/16 09:10:57;;;;;;;11.60;5.25;;;;;;;5.07;61.16;100948.97;4926113;28;100510;-82
2024/01/16 09:13:24;;;;;;;11.88;5.25;;;;;;;5.08;61.03;100941.84;4945780;28;97686;-82
2024/01/16 09:15:51;;;;;;;11.63;5.90;;;;;;;5.12;61.11;100943.44;4941050;28;97768;-80
2024/01/16 09:18:17;;;;;;;12.93;5.40;;;;;;;5.13;61.04;100944.28;4943257;28;98345;-83
2024/01/16 09:20:45;;;;;;;10.10;5.18;;;;;;;5.13;61.15;100942.50;4960813;28;97892;-82
2024/01/16 09:23:12;;;;;;;10.70;5.75;;;;;;;5.15;60.91;100945.94;4951589;28;97036;-82
2024/01/16 09:25:39;;;;;;;15.65;5.97;;;;;;;5.17;61.09;100945.88;4941855;28;97090;-82
2024/01/16 09:28:06;;;;;;;10.70;5.10;;;;;;;5.17;60.87;100946.75;4938476;28;98114;-82
2024/01/16 09:30:33;;;;;;;8.60;4.80;;;;;;;5.17;60.96;100944.09;4945718;28;98308;-82
2024/01/16 09:33:01;;;;;;;12.48;5.90;;;;;;;5.13;60.74;100942.50;4925923;28;97112;-82
2024/01/16 09:35:28;;;;;;;14.63;6.13;;;;;;;5.10;60.78;100938.19;4957712;28;96933;-82
2024/01/16 09:37:54;;;;;;;13.57;4.95;;;;;;;5.10;60.72;100935.53;4939087;28;98500;-82
2024/01/16 09:40:21;;;;;;;8.80;5.45;;;;;;;5.10;60.79;100942.63;4953006;28;97903;-82
2024/01/16 09:42:48;;;;;;;9.70;5.05;;;;;;;5.10;60.73;100946.16;4941397;28;97508;-82
2024/01/16 09:45:19;;;;;;;12.18;5.57;;;;;;;5.11;60.71;100936.38;4919893;28;98989;-80
2024/01/16 09:47:49;;;;;;;11.25;5.30;;;;;;;5.11;60.92;100941.72;4937264;28;98169;-82
2024/01/16 09:50:20;;;;;;;10.80;5.25;;;;;;;5.10;60.43;100935.53;4930144;28;100995;-80
2024/01/16 09:52:48;;;;;;;9.52;5.13;;;;;;;5.09;60.69;100935.59;4948519;28;98072;-81
2024/01/16 09:55:15;;;;;;;8.98;4.90;;;;;;;5.09;60.51;100933.78;4932043;28;97155;-81
2024/01/16 09:57:45;;;;;;;11.13;5.13;;;;;;;5.09;60.21;100928.47;4941297;28;99474;-82
2024/01/16 10:00:12;;;;;;;7.82;4.70;;;;;;;5.08;60.54;100921.41;4941145;28;99926;-82
2024/01/16 10:02:40;;;;;;;9.15;4.90;;;;;;;5.08;60.46;100916.09;4937939;28;98252;-80
2024/01/16 10:05:08;;;;;;;10.27;5.30;;;;;;;5.08;60.46;100920.56;4937963;28;97148;-80
2024/01/16 10:07:37;;;;;;;8.45;5.03;;;;;;;5.06;60.32;100919.75;4932878;28;100401;-80
2024/01/16 10:10:05;;;;;;;8.65;4.40;;;;;;;5.06;60.32;100925.94;4934196;28;100483;-81
2024/01/16 10:12:32;;;;;;;14.15;5.25;;;;;;;5.06;60.25;100922.44;4915698;28;97378;-81
2024/01/16 10:15:00;;;;;;;10.20;4.90;;;;;;;5.02;60.35;100913.72;4923290;28;97467;-81
2024/01/16 10:17:42;;;;;;;8.82;5.15;;;;;;;5.04;60.19;100925.16;4950328;28;97921;-80
2024/01/16 10:20:13;;;;;;;6.75;4.53;;;;;;;5.06;60.25;100917.09;4938089;28;99004;-81
2024/01/16 10:22:40;;;;;;;8.32;4.72;;;;;;;5.06;60.14;100907.31;4917464;28;97098;-81
2024/01/16 10:25:16;;;;;;;9.68;4.63;;;;;;;5.07;60.29;100906.38;4925141;28;97630;-81
2024/01/16 10:27:43;;;;;;;;;;;;;;;5.06;60.06;100909.97;4937747;28;98437;-81
2024/01/16 10:30:10;;;;;;;10.18;5.03;;;;;;;5.10;59.96;100902.72;4954751;28;99389;-80
2024/01/16 10:32:39;;;;;;;9.38;4.40;;;;;;;5.07;59.91;100905.53;4955428;28;97288;-80
2024/01/16 10:35:08;;;;;;;8.30;4.32;;;;;;;5.04;59.91;100909.19;4949632;28;97809;-80
2024/01/16 10:37:44;;;;;;;12.38;5.22;;;;;;;5.02;59.94;100897.75;4945314;28;98754;-80
2024/01/16 10:40:16;;;;;;;11.85;4.82;;;;;;;5.00;59.88;100896.97;4956175;28;97592;-81
2024/01/16 10:42:46;;;;;;;12.68;5.00;;;;;;;5.01;60.11;100903.16;4941739;28;97136;-81
2024/01/16 10:45:19;;;;;;;10.10;4.35;;;;;;;4.99;59.84;100902.34;4960410;28;97319;-81
2024/01/16 10:47:46;;;;;;;9.88;4.38;;;;;;;5.00;59.88;100896.97;4940518;28;98697;-81
2024/01/16 10:50:14;;;;;;;10.90;4.68;;;;;;;5.01;59.97;100888.03;4938572;28;98168;-81
2024/01/16 10:52:48;;;;;;;10.73;4.60;;;;;;;5.02;59.92;100896.88;4954357;28;97317;-81
2024/01/16 10:55:21;;;;;;;10.00;4.53;;;;;;;5.03;60.11;100907.47;4950669;28;97359;-81
2024/01/16 10:57:51;;;;;;;8.73;4.65;;;;;;;5.03;59.92;100907.47;4939247;28;99322;-81
2024/01/16 11:00:20;;;;;;;12.73;4.82;;;;;;;5.04;59.69;100903.88;4942825;28;97838;-81
2024/01/16 11:03:05;;;;;;;9.77;5.22;;;;;;;5.06;60.00;100906.47;4942384;28;97166;-81
2024/01/16 11:05:34;;;;;;;10.80;3.90;;;;;;;5.09;59.83;100908.97;4956297;28;97259;-81
2024/01/16 11:08:01;;;;;;;8.57;3.70;;;;;;;5.08;59.84;100897.47;4943491;28;100408;-81
2024/01/16 11:10:28;;;;;;;7.30;4.45;;;;;;;5.10;59.78;100900.91;4955961;28;98063;-80
2024/01/16 11:12:59;;;;;;;10.85;4.10;;;;;;;5.11;59.70;100893.78;4948274;28;97051;-81
2024/01/16 11:15:28;;;;;;;6.80;4.00;;;;;;;5.14;59.66;100890.13;4944604;28;97105;-80
2024/01/16 11:17:57;;;;;;;8.15;3.50;;;;;;;5.15;59.54;100890.03;4946173;28;97819;-81
2024/01/16 11:20:25;;;;;;;8.48;3.97;;;;;;;5.18;59.75;100881.91;4945628;28;100448;-81
2024/01/16 11:23:13;;;;;;;9.48;4.18;;;;;;;5.20;59.84;100872.09;4944531;28;97880;-80
2024/01/16 11:25:39;;;;;;;9.60;4.40;;;;;;;5.23;59.63;100863.09;4946964;28;97115;-80
2024/01/16 11:28:14;;;;;;;8.70;3.83;;;;;;;5.23;59.63;100871.06;4945533;28;98296;-80
2024/01/16 11:30:41;;;;;;;10.50;4.65;;;;;;;5.24;59.45;100854.16;4965716;28;98043;-80
2024/01/16 11:33:33;;;;;;;8.43;4.35;;;;;;;5.24;59.45;100855.03;4946838;28;97372;-82